Time;durP1;ratioP1;P1;durP2;ratioP2;P2;SDS_P1;SDS_P2;PMS_P1;PMS_P2;Temp;Humidity;BMP_temperature;BMP_pressure;BME280_temperature;BME280_humidity;BME280_pressure;Samples;Min_cycle;Max_cycle;Signal;HPM_P1;HPM_P2
2021/10/27 00:01:43;;;;;;;;;7.67;7.67;;;;;14.15;69.98;102200.75;5057405;28;61741;-76
2021/10/27 00:04:08;;;;;;;;;7.33;6.00;;;;;14.14;70.25;102202.53;5058280;28;45310;-75
2021/10/27 00:06:40;;;;;;;;;6.33;5.33;;;;;14.10;70.38;102199.78;5059511;28;45497;-77
2021/10/27 00:09:12;;;;;;;;;6.00;6.00;;;;;14.14;70.39;102199.88;5059421;28;45475;-76
2021/10/27 00:11:38;;;;;;;;;6.67;5.67;;;;;14.11;69.97;102197.19;5059027;28;46753;-76
2021/10/27 00:14:08;;;;;;;;;8.00;6.67;;;;;14.06;70.60;102198.84;5055498;28;45573;-76
2021/10/27 00:16:34;;;;;;;;;5.67;5.67;;;;;14.10;70.14;102208.63;5059289;28;45436;-78
2021/10/27 00:18:59;;;;;;;;;8.33;6.67;;;;;14.10;70.33;102216.59;5044218;28;46449;-76
2021/10/27 00:21:25;;;;;;;;;11.00;4.67;;;;;14.03;70.06;102204.09;5038230;28;62869;-76
2021/10/27 00:23:51;;;;;;;;;10.00;7.00;;;;;14.00;69.86;102204.03;5038843;28;45436;-76
2021/10/27 00:26:16;;;;;;;;;9.67;7.33;;;;;14.02;70.08;102209.38;5055170;28;52197;-77
2021/10/27 00:28:41;;;;;;;;;15.00;10.33;;;;;14.01;70.43;102215.53;5052656;28;55668;-76
2021/10/27 00:31:07;;;;;;;;;18.00;13.00;;;;;13.98;70.17;102221.69;5051269;28;61504;-75
2021/10/27 00:33:32;;;;;;;;;21.33;13.00;;;;;13.97;70.31;102219.03;5041253;28;55363;-75
2021/10/27 00:35:58;;;;;;;;;20.33;13.67;;;;;13.95;70.61;102210.09;5058050;28;45229;-76
2021/10/27 00:38:24;;;;;;;;;18.67;14.00;;;;;13.93;70.46;102212.75;5046683;28;45637;-77
2021/10/27 00:40:49;;;;;;;;;20.00;12.67;;;;;13.92;70.26;102210.06;5038662;28;47388;-75
2021/10/27 00:43:14;;;;;;;;;16.67;8.67;;;;;13.88;70.53;102207.34;5054621;28;53536;-76
2021/10/27 00:45:40;;;;;;;;;12.67;8.33;;;;;13.87;70.04;102210.88;5058432;28;51811;-76
2021/10/27 00:48:05;;;;;;;;;13.00;8.33;;;;;13.85;70.00;102217.03;4997868;28;45343;-76
2021/10/27 00:50:31;;;;;;;;;13.00;8.33;;;;;13.81;70.74;102212.50;5020983;28;46390;-74
2021/10/27 00:52:57;;;;;;;;;7.67;7.67;;;;;13.81;70.52;102212.50;5038343;28;45378;-78
2021/10/27 00:55:23;;;;;;;;;7.33;6.33;;;;;13.79;70.29;102215.13;5040150;28;45752;-76
2021/10/27 00:57:49;;;;;;;;;10.67;6.67;;;;;13.76;70.42;102219.50;5038650;28;45455;-76
2021/10/27 01:00:14;;;;;;;;;10.00;7.33;;;;;13.74;70.62;102216.81;5038204;28;46843;-75
2021/10/27 01:02:41;;;;;;;;;10.33;8.33;;;;;13.70;70.32;102209.66;5045081;28;45283;-77
2021/10/27 01:05:08;;;;;;;;;8.00;6.00;;;;;13.71;70.52;102205.22;5058513;28;45201;-75
2021/10/27 01:07:34;;;;;;;;;11.00;7.00;;;;;13.72;70.30;102207.00;4979292;28;45525;-76
2021/10/27 01:09:59;;;;;;;;;11.00;10.00;;;;;13.69;70.64;102206.94;5046608;28;46582;-77
2021/10/27 01:12:25;;;;;;;;;11.67;8.33;;;;;13.69;70.58;102201.63;5058171;28;45547;-76
2021/10/27 01:14:50;;;;;;;;;12.67;8.33;;;;;13.67;70.46;102200.72;5058129;28;45881;-77
2021/10/27 01:17:16;;;;;;;;;7.00;7.00;;;;;13.63;70.56;102205.97;4990817;28;45458;-76
2021/10/27 01:19:49;;;;;;;;;9.00;7.00;;;;;13.62;70.68;102206.81;5037995;28;47438;-75
2021/10/27 01:22:15;;;;;;;;;7.33;6.67;;;;;13.56;70.66;102195.19;5057204;28;45537;-76
2021/10/27 01:24:41;;;;;;;;;13.00;11.00;;;;;13.57;70.93;102211.13;5058525;28;45331;-78
2021/10/27 01:27:06;;;;;;;;;16.67;13.67;;;;;13.51;70.90;102208.34;5057936;28;45407;-76
2021/10/27 01:29:32;;;;;;;;;16.33;11.33;;;;;13.55;70.87;102209.31;5037977;28;47245;-76
2021/10/27 01:31:58;;;;;;;;;15.33;12.00;;;;;13.51;71.08;102205.69;5037958;28;45398;-75
2021/10/27 01:34:23;;;;;;;;;18.33;13.00;;;;;13.50;70.68;102209.22;5044223;28;45289;-75
2021/10/27 01:36:48;;;;;;;;;15.33;11.67;;;;;13.51;70.89;102208.34;5057758;28;45471;-76
2021/10/27 01:39:14;;;;;;;;;14.33;10.33;;;;;13.48;70.91;102199.47;5057698;28;46602;-76
2021/10/27 01:41:39;;;;;;;;;15.33;12.00;;;;;13.35;70.90;102185.03;5057333;28;55291;-77
2021/10/27 01:44:05;;;;;;;;;19.67;12.33;;;;;13.44;70.81;102195.84;5050686;28;54237;-76
2021/10/27 01:46:35;;;;;;;;;13.33;12.00;;;;;13.43;70.96;102198.47;5037606;28;45618;-76
2021/10/27 01:49:05;;;;;;;;;13.00;10.00;;;;;13.41;71.05;102190.44;5032644;28;47445;-76
2021/10/27 01:51:31;;;;;;;;;11.00;9.33;;;;;13.39;70.99;102186.88;5037427;28;45340;-76
2021/10/27 01:53:56;;;;;;;;;11.33;8.33;;;;;13.39;71.13;102191.28;5037766;28;45224;-74
2021/10/27 01:56:23;;;;;;;;;14.67;10.67;;;;;13.33;70.89;102182.34;5037592;28;45520;-77
2021/10/27 01:58:49;;;;;;;;;14.33;10.33;;;;;13.35;71.03;102185.91;5037384;28;46605;-76
2021/10/27 02:01:14;;;;;;;;;7.67;7.33;;;;;13.34;71.22;102181.47;5037481;28;45515;-76
2021/10/27 02:03:40;;;;;;;;;11.00;9.67;;;;;13.34;70.94;102178.81;5043867;28;48644;-77
2021/10/27 02:06:05;;;;;;;;;11.00;7.67;;;;;13.32;71.04;102179.66;5037384;28;45329;-75
2021/10/27 02:08:31;;;;;;;;;7.67;7.67;;;;;13.27;70.99;102163.66;5055002;28;45724;-76
2021/10/27 02:10:57;;;;;;;;;14.33;9.33;;;;;13.30;71.07;102171.66;5055308;28;45256;-79
2021/10/27 02:13:22;;;;;;;;;10.33;9.33;;;;;13.29;71.09;102167.22;5037271;28;45297;-75
2021/10/27 02:15:48;;;;;;;;;9.00;7.00;;;;;13.27;70.88;102168.97;5037359;28;45520;-78
2021/10/27 02:18:13;;;;;;;;;7.00;7.00;;;;;13.25;70.97;102165.34;5048641;28;47443;-75
2021/10/27 02:20:39;;;;;;;;;10.33;8.00;;;;;13.24;71.07;102174.19;5037019;28;46565;-78
2021/10/27 02:23:04;;;;;;;;;9.33;9.33;;;;;13.21;71.07;102170.53;5037264;28;45364;-76
2021/10/27 02:25:29;;;;;;;;;8.33;8.33;;;;;13.19;70.96;102178.44;5029265;28;45424;-76
2021/10/27 02:27:55;;;;;;;;;11.33;9.33;;;;;13.17;70.91;102177.53;5036618;28;59903;-76
2021/10/27 02:30:20;;;;;;;;;11.00;7.33;;;;;13.11;70.96;102173.00;5036866;28;52586;-76
2021/10/27 02:32:45;;;;;;;;;7.00;7.00;;;;;13.16;71.00;102180.16;5049034;28;45257;-76
2021/10/27 02:35:11;;;;;;;;;10.33;7.00;;;;;13.13;71.00;102170.38;5055782;28;49533;-77
2021/10/27 02:37:36;;;;;;;;;7.00;7.00;;;;;13.13;70.98;102166.81;5056204;28;60092;-75
2021/10/27 02:40:02;;;;;;;;;6.00;6.00;;;;;13.10;70.82;102172.94;5056994;28;45339;-75
2021/10/27 02:42:28;;;;;;;;;8.67;8.67;;;;;13.09;71.06;102172.03;5057183;28;45202;-76
2021/10/27 02:44:53;;;;;;;;;5.67;5.67;;;;;13.07;71.01;102173.78;5056893;28;45154;-78
2021/10/27 02:47:19;;;;;;;;;11.33;9.00;;;;;13.06;70.89;102173.75;5037113;28;46285;-78
2021/10/27 02:49:44;;;;;;;;;8.00;8.00;;;;;13.05;70.83;102180.81;5036795;28;45420;-77
2021/10/27 02:52:10;;;;;;;;;10.33;9.00;;;;;13.01;71.04;102165.69;5037580;28;49396;-78
2021/10/27 02:54:35;;;;;;;;;8.67;5.67;;;;;13.03;70.91;102171.03;5056656;28;45664;-77
2021/10/27 02:57:01;;;;;;;;;6.00;6.00;;;;;12.94;71.12;102168.16;5056145;28;48774;-76
2021/10/27 02:59:26;;;;;;;;;8.67;7.67;;;;;12.89;71.12;102157.47;5056375;28;45366;-75
2021/10/27 03:01:51;;;;;;;;;6.00;6.00;;;;;12.98;71.31;102167.38;5037114;28;54224;-76
2021/10/27 03:04:17;;;;;;;;;10.67;9.67;;;;;12.97;71.30;102171.78;5056132;28;53324;-75
2021/10/27 03:06:42;;;;;;;;;8.00;8.00;;;;;12.98;71.43;102176.22;5056271;28;47629;-76
2021/10/27 03:09:08;;;;;;;;;7.67;5.00;;;;;12.98;71.00;102168.25;4970025;28;46114;-76
2021/10/27 03:11:33;;;;;;;;;7.33;7.33;;;;;12.97;71.34;102171.78;5056644;28;45376;-76
2021/10/27 03:13:59;;;;;;;;;10.00;6.67;;;;;12.89;71.24;102152.16;5056546;28;45617;-76
2021/10/27 03:16:24;;;;;;;;;6.00;6.00;;;;;12.94;71.05;102166.41;5056335;28;47250;-75
2021/10/27 03:18:49;;;;;;;;;8.00;6.00;;;;;12.92;71.31;102156.63;5056069;28;55209;-76
2021/10/27 03:21:15;;;;;;;;;7.33;5.00;;;;;12.91;71.12;102153.09;5056005;28;51424;-76
2021/10/27 03:23:40;;;;;;;;;6.67;5.67;;;;;12.89;71.18;102146.88;4973205;28;45254;-76
2021/10/27 03:26:06;;;;;;;;;8.33;7.33;;;;;12.87;71.13;102145.03;5049253;28;46464;-77
2021/10/27 03:28:31;;;;;;;;;13.33;6.00;;;;;12.87;71.35;102142.38;5044710;28;46815;-75
2021/10/27 03:30:56;;;;;;;;;9.00;8.00;;;;;12.85;71.37;102147.66;5036121;28;45193;-76
2021/10/27 03:33:22;;;;;;;;;6.00;6.00;;;;;12.83;71.08;102142.28;5045004;28;45415;-75
2021/10/27 03:35:47;;;;;;;;;6.67;5.33;;;;;12.81;71.33;102140.47;5055873;28;46351;-76
2021/10/27 03:38:13;;;;;;;;;5.67;5.67;;;;;12.80;71.23;102146.66;5058475;28;45193;-76
2021/10/27 03:40:38;;;;;;;;;6.67;6.67;;;;;12.78;71.25;102145.69;5054756;28;45379;-76
2021/10/27 03:43:04;;;;;;;;;5.67;5.67;;;;;12.75;71.13;102146.53;5039959;28;45167;-76
2021/10/27 03:45:29;;;;;;;;;7.33;7.33;;;;;12.75;71.31;102148.31;5046701;28;46417;-76
2021/10/27 03:47:55;;;;;;;;;6.67;6.67;;;;;12.73;71.16;102147.34;5059786;28;45322;-75
2021/10/27 03:50:20;;;;;;;;;9.00;5.67;;;;;12.71;70.95;102146.44;4987080;28;45388;-75
2021/10/27 03:52:46;;;;;;;;;6.67;6.67;;;;;12.64;71.05;102140.09;5038771;28;45514;-75
2021/10/27 03:55:11;;;;;;;;;11.00;7.33;;;;;12.64;71.04;102134.81;5059312;28;47245;-76
2021/10/27 03:57:36;;;;;;;;;5.67;5.67;;;;;12.67;71.10;102157.81;4977711;28;54466;-74
2021/10/27 04:00:05;;;;;;;;;10.67;9.00;;;;;12.64;70.96;102152.47;5049627;28;51804;-77
2021/10/27 04:02:30;;;;;;;;;9.00;5.00;;;;;12.64;71.25;102157.75;5059179;28;45437;-75
2021/10/27 04:04:55;;;;;;;;;10.67;9.00;;;;;12.61;70.87;102155.03;5059213;28;45222;-76
2021/10/27 04:07:21;;;;;;;;;10.33;7.00;;;;;12.58;71.24;102146.16;5059155;28;45293;-75
2021/10/27 04:09:46;;;;;;;;;10.00;8.00;;;;;12.60;71.19;102151.47;5039520;28;50111;-76
2021/10/27 04:12:12;;;;;;;;;8.00;8.00;;;;;12.58;71.17;102147.91;5039178;28;48005;-75
2021/10/27 04:14:37;;;;;;;;;12.00;10.33;;;;;12.58;71.20;102148.81;5038748;28;45305;-76
2021/10/27 04:17:03;;;;;;;;;5.67;5.67;;;;;12.56;71.06;102155.81;5050168;28;45323;-75
2021/10/27 04:19:28;;;;;;;;;6.67;6.67;;;;;12.54;71.17;102157.53;5059228;28;45479;-75
2021/10/27 04:21:54;;;;;;;;;12.00;6.00;;;;;12.52;71.07;102159.25;5059248;28;45275;-76
2021/10/27 04:24:19;;;;;;;;;5.67;5.00;;;;;12.50;70.98;102160.06;5058850;28;46467;-75
2021/10/27 04:26:45;;;;;;;;;7.00;6.33;;;;;12.50;71.35;102155.66;5058658;28;52760;-78
2021/10/27 04:29:10;;;;;;;;;10.67;7.00;;;;;12.39;71.47;102141.25;5042380;28;45347;-75
2021/10/27 04:31:37;;;;;;;;;8.00;5.00;;;;;12.51;71.21;102156.53;5048327;28;45437;-75
2021/10/27 04:34:02;;;;;;;;;11.00;11.00;;;;;12.51;71.08;102161.84;5045352;28;47255;-75
2021/10/27 04:36:27;;;;;;;;;6.00;6.00;;;;;12.50;71.32;102162.72;5048105;28;45298;-75
2021/10/27 04:38:53;;;;;;;;;8.00;6.00;;;;;12.50;71.19;102162.72;5042219;28;56129;-75
2021/10/27 04:41:18;;;;;;;;;9.67;8.67;;;;;12.49;71.47;102168.88;5046278;28;51252;-76
2021/10/27 04:43:44;;;;;;;;;6.33;6.33;;;;;12.48;71.39;102162.69;5038205;28;53421;-75
2021/10/27 04:46:10;;;;;;;;;8.33;6.00;;;;;12.48;71.48;102167.09;5038301;28;45449;-77
2021/10/27 04:48:35;;;;;;;;;9.33;6.67;;;;;12.49;71.11;102168.88;5038302;28;45314;-76
2021/10/27 04:51:01;;;;;;;;;7.00;5.00;;;;;12.48;71.43;102167.09;5038591;28;45547;-75
2021/10/27 04:53:26;;;;;;;;;8.67;5.00;;;;;12.48;71.32;102172.38;5045000;28;46210;-75
2021/10/27 04:55:52;;;;;;;;;9.00;8.67;;;;;12.47;71.66;102166.19;5058569;28;45201;-75
2021/10/27 04:58:17;;;;;;;;;6.00;6.00;;;;;12.48;71.43;102172.38;4988051;28;45554;-75
2021/10/27 05:00:43;;;;;;;;;12.67;10.00;;;;;12.46;71.83;102164.38;5035471;28;45324;-75
2021/10/27 05:03:08;;;;;;;;;8.33;6.00;;;;;12.43;71.56;102153.72;5057475;28;57227;-75
2021/10/27 05:05:40;;;;;;;;;6.00;6.00;;;;;12.45;71.58;102159.94;5057869;28;59272;-75
2021/10/27 05:08:05;;;;;;;;;10.00;8.00;;;;;12.45;71.58;102167.00;4955759;28;46447;-75
2021/10/27 05:10:30;;;;;;;;;8.00;8.00;;;;;12.45;71.66;102165.25;5015610;28;49249;-75
2021/10/27 05:12:56;;;;;;;;;11.00;8.33;;;;;12.45;71.59;102156.41;5042491;28;46282;-75
2021/10/27 05:15:21;;;;;;;;;5.67;5.67;;;;;12.45;71.60;102153.75;5057379;28;45535;-75
2021/10/27 05:17:47;;;;;;;;;10.67;9.00;;;;;12.44;71.68;102155.50;5044427;28;47970;-75
2021/10/27 05:20:14;;;;;;;;;6.67;6.67;;;;;12.42;71.73;102151.94;5040361;28;45646;-75
2021/10/27 05:22:39;;;;;;;;;11.00;8.00;;;;;12.43;71.65;102159.03;5054394;28;47067;-75
2021/10/27 05:25:05;;;;;;;;;9.00;6.67;;;;;12.42;71.53;102154.59;5042227;28;47418;-75
2021/10/27 05:27:31;;;;;;;;;11.67;8.67;;;;;12.40;71.41;102161.59;5057974;28;45466;-75
2021/10/27 05:29:57;;;;;;;;;9.00;7.33;;;;;12.41;71.75;102170.44;4953687;28;45696;-76
2021/10/27 05:32:22;;;;;;;;;7.33;7.33;;;;;12.40;71.49;102160.69;5049731;28;46349;-75
2021/10/27 05:34:47;;;;;;;;;8.00;8.00;;;;;12.39;71.75;102154.50;4992754;28;45313;-76
2021/10/27 05:37:13;;;;;;;;;10.00;6.00;;;;;12.40;71.86;102163.34;5052348;28;48570;-75
2021/10/27 05:39:38;;;;;;;;;8.67;7.67;;;;;12.39;72.05;102153.59;5054432;28;46627;-77
2021/10/27 05:42:05;;;;;;;;;10.00;8.00;;;;;12.26;71.85;102131.22;5057116;28;45648;-76
2021/10/27 05:44:31;;;;;;;;;9.00;6.00;;;;;12.39;72.02;102150.97;5057665;28;45399;-75
2021/10/27 05:46:57;;;;;;;;;8.33;8.00;;;;;12.39;72.25;102158.91;4969659;28;45176;-77
2021/10/27 05:49:32;;;;;;;;;12.67;9.67;;;;;12.39;72.29;102150.97;5057762;28;45260;-76
2021/10/27 05:57:13;;;;;;;;;5.67;5.67;;;;;12.38;72.32;102157.13;5042736;28;45466;-75
2021/10/27 05:59:38;;;;;;;;;7.00;4.67;;;;;12.38;72.51;102150.06;5036981;28;48351;-75
2021/10/27 06:02:04;;;;;;;;;9.33;6.00;;;;;12.40;72.51;102145.69;5007430;28;45656;-74
2021/10/27 06:04:29;;;;;;;;;7.00;5.00;;;;;12.41;72.36;102149.22;5048833;28;45364;-75
2021/10/27 06:06:54;;;;;;;;;10.33;9.33;;;;;12.40;72.54;102151.00;5039191;28;45454;-76
2021/10/27 06:09:20;;;;;;;;;9.00;8.00;;;;;12.41;72.34;102157.19;5044294;28;51641;-75
2021/10/27 06:11:45;;;;;;;;;8.33;8.00;;;;;12.40;72.28;102153.63;5046603;28;46498;-77
2021/10/27 06:14:11;;;;;;;;;9.00;6.00;;;;;12.35;72.15;102144.69;5046123;28;50441;-75
2021/10/27 06:16:36;;;;;;;;;9.33;8.33;;;;;12.39;72.29;102154.50;5048573;28;46331;-76
2021/10/27 06:19:01;;;;;;;;;10.33;8.33;;;;;12.37;72.15;102150.94;5047047;28;45562;-75
2021/10/27 06:21:27;;;;;;;;;12.00;9.67;;;;;12.37;72.14;102144.75;5045429;28;46490;-76
2021/10/27 06:23:52;;;;;;;;;10.00;10.00;;;;;12.32;72.27;102136.69;5054763;28;45457;-76
2021/10/27 06:26:19;;;;;;;;;14.33;10.00;;;;;12.33;72.19;102135.81;5045422;28;45174;-74
2021/10/27 06:28:59;;;;;;;;;15.00;10.67;;;;;12.33;71.77;102136.72;4966047;28;45649;-75
2021/10/27 06:31:49;;;;;;;;;15.67;14.33;;;;;12.32;72.00;102137.56;5017348;28;47320;-75
2021/10/27 06:37:25;;;;;;;;;15.67;10.00;;;;;12.28;72.00;102145.41;5046847;28;45518;-75
2021/10/27 06:47:53;;;;;;;;;16.00;12.00;;;;;12.24;72.04;102162.94;5043370;28;45518;-74
2021/10/27 06:50:19;;;;;;;;;16.33;13.67;;;;;12.23;71.88;102166.47;5054099;28;45819;-75
2021/10/27 06:52:45;;;;;;;;;16.00;13.33;;;;;12.25;71.91;102162.13;5047173;28;46740;-75
2021/10/27 06:55:11;;;;;;;;;17.00;12.33;;;;;12.26;72.08;102157.72;5048682;28;45482;-75
2021/10/27 06:57:36;;;;;;;;;19.67;11.67;;;;;12.26;72.12;102163.91;5052527;28;46068;-74
2021/10/27 07:00:15;;;;;;;;;17.00;14.33;;;;;12.26;72.10;102169.19;5044725;28;45443;-74
2021/10/27 07:16:07;;;;;;;;;16.00;11.67;;;;;12.37;72.36;102192.41;5039784;28;45411;-75
2021/10/27 07:18:33;;;;;;;;;15.00;11.00;;;;;12.35;72.41;102188.81;4993405;28;45479;-74
2021/10/27 07:20:58;;;;;;;;;18.00;12.00;;;;;12.40;72.75;102192.47;5035691;28;45396;-75
2021/10/27 07:23:24;;;;;;;;;13.67;11.67;;;;;12.43;72.49;102197.88;5054055;28;46686;-74
2021/10/27 07:25:56;;;;;;;;;12.33;10.00;;;;;12.45;72.27;102199.69;5053304;28;45487;-73
2021/10/27 07:28:24;;;;;;;;;15.67;13.67;;;;;12.45;72.54;102194.38;5015435;28;45412;-77
2021/10/27 07:30:50;;;;;;;;;10.67;8.67;;;;;12.49;72.99;102203.31;5010260;28;45533;-77
2021/10/27 07:33:15;;;;;;;;;18.67;13.33;;;;;12.52;72.73;102209.59;4999032;28;46190;-76
2021/10/27 07:35:49;;;;;;;;;14.33;14.33;;;;;12.54;72.93;102207.88;5049249;28;45468;-76
2021/10/27 07:40:58;;;;;;;;;20.67;19.67;;;;;12.58;72.96;102209.75;5049945;28;45292;-77
2021/10/27 07:43:27;;;;;;;;;27.00;21.33;;;;;12.52;72.91;102204.31;5046842;28;45740;-77
2021/10/27 07:45:53;;;;;;;;;27.00;20.67;;;;;12.60;73.37;102212.44;5048149;28;45336;-84
2021/10/27 07:48:19;;;;;;;;;19.67;14.33;;;;;12.55;73.32;102214.97;4964852;28;45708;-77
2021/10/27 07:50:44;;;;;;;;;21.00;16.33;;;;;12.63;73.08;102225.75;5028619;28;46347;-77
2021/10/27 07:53:11;;;;;;;;;23.33;18.00;;;;;12.65;73.18;102229.34;4997216;28;46277;-76
2021/10/27 07:55:41;;;;;;;;;17.00;14.67;;;;;12.67;73.39;102227.59;5049568;28;45667;-75
2021/10/27 07:58:07;;;;;;;;;24.33;18.00;;;;;12.66;73.30;102223.16;5049264;28;45123;-75
2021/10/27 08:00:33;;;;;;;;;15.67;14.33;;;;;12.75;73.42;102231.34;5050337;28;45689;-75
2021/10/27 08:03:02;;;;;;;;;22.00;17.67;;;;;12.78;73.56;102231.44;5052208;28;47973;-74
2021/10/27 08:05:29;;;;;;;;;16.67;15.33;;;;;12.84;73.58;102226.28;5042156;28;45899;-73
2021/10/27 08:07:54;;;;;;;;;21.67;16.33;;;;;12.84;73.71;102220.09;5053717;28;45541;-74
2021/10/27 08:10:20;;;;;;;;;27.67;15.00;;;;;12.87;73.84;102222.78;5055512;28;55375;-75
2021/10/27 08:12:46;;;;;;;;;26.00;19.00;;;;;12.98;73.83;102220.41;5010340;28;60901;-75
2021/10/27 08:15:12;;;;;;;;;20.67;17.67;;;;;13.02;73.44;102228.47;4957304;28;45520;-76
2021/10/27 08:17:38;;;;;;;;;15.67;15.67;;;;;13.04;73.38;102217.88;5051216;28;45377;-76
2021/10/27 08:20:05;;;;;;;;;25.67;20.00;;;;;13.10;73.64;102216.28;5007588;28;45589;-75
2021/10/27 08:22:31;;;;;;;;;18.67;17.00;;;;;13.11;73.91;102212.78;5057250;28;46943;-77
2021/10/27 08:27:37;;;;;;;;;21.33;18.00;;;;;13.25;73.33;102215.75;4951891;26;45569;-76
2021/10/27 08:30:07;;;;;;;;;19.33;17.67;;;;;13.24;73.59;102203.34;4971619;28;45619;-76
2021/10/27 08:35:32;;;;;;;;;20.33;14.67;;;;;13.35;73.45;102200.94;4960635;28;45545;-74
2021/10/27 08:37:58;;;;;;;;;17.00;17.00;;;;;13.46;72.99;102209.13;4961958;28;45491;-74
2021/10/27 08:40:24;;;;;;;;;31.00;24.67;;;;;13.49;73.22;102210.09;5000160;28;45585;-73
2021/10/27 08:42:49;;;;;;;;;25.33;19.33;;;;;13.54;72.91;102210.19;4935623;28;47365;-72
2021/10/27 08:45:16;;;;;;;;;22.00;17.33;;;;;13.57;73.02;102213.78;4997298;28;45444;-72
2021/10/27 08:47:42;;;;;;;;;16.67;13.33;;;;;13.60;72.84;102211.22;4933283;28;45463;-72
2021/10/27 08:50:10;;;;;;;;;16.33;13.67;;;;;13.62;72.91;102205.94;4950497;28;45611;-71
2021/10/27 08:52:36;;;;;;;;;17.00;15.00;;;;;13.71;73.01;102206.13;4941273;28;46448;-71
2021/10/27 08:55:05;;;;;;;;;17.33;13.33;;;;;13.74;72.56;102211.50;5022162;28;45478;-70
2021/10/27 08:57:31;;;;;;;;;19.33;13.33;;;;;13.79;72.58;102211.56;4941047;28;45440;-72
2021/10/27 09:05:27;;;;;;;;;13.00;13.00;;;;;13.91;72.77;102201.22;4935468;28;45508;-72
2021/10/27 09:09:06;;;;;;;;;19.00;15.00;;;;;13.96;72.45;102201.31;4935339;28;45392;-74
2021/10/27 10:06:06;;;;;;;;;19.33;16.00;;;;;14.92;71.16;102187.03;4983471;28;45612;-73
2021/10/27 10:08:31;;;;;;;;;21.33;17.00;;;;;14.92;70.54;102179.03;5000663;28;46779;-74
2021/10/27 10:10:57;;;;;;;;;18.67;15.00;;;;;15.01;70.48;102187.13;5011418;28;45328;-75
2021/10/27 10:13:22;;;;;;;;;20.67;14.67;;;;;15.03;70.63;102185.41;4936216;28;50509;-75
2021/10/27 10:15:48;;;;;;;;;19.00;12.67;;;;;15.09;70.23;102192.59;4984787;28;45421;-73
2021/10/27 10:18:13;;;;;;;;;21.67;18.00;;;;;15.13;70.52;102190.00;4934408;28;46520;-74
2021/10/27 10:20:40;;;;;;;;;17.00;16.67;;;;;15.16;70.11;102195.34;5000423;28;56377;-72
2021/10/27 10:23:20;;;;;;;;;19.33;16.67;;;;;15.13;70.44;102176.69;4935240;28;45448;-74
2021/10/27 10:26:02;;;;;;;;;17.67;15.33;;;;;15.23;70.34;102193.66;4934340;28;45635;-74
2021/10/27 10:28:29;;;;;;;;;19.00;16.33;;;;;15.27;70.10;102192.81;4931235;28;45611;-74
2021/10/27 10:31:00;;;;;;;;;16.33;16.33;;;;;15.31;69.30;102191.09;5000877;28;45599;-75
2021/10/27 10:33:42;;;;;;;;;22.33;20.67;;;;;15.35;69.33;102190.28;4997036;28;45474;-74
2021/10/27 10:36:28;;;;;;;;;19.67;18.00;;;;;15.34;69.29;102193.78;4937369;28;45290;-75
2021/10/27 10:44:35;;;;;;;;;18.67;17.00;;;;;15.44;69.46;102190.38;4945467;28;45602;-79
2021/10/27 11:40:12;;;;;;;;;24.00;24.00;;;;;15.84;68.21;102126.97;5022784;28;45458;-82
2021/10/27 11:42:48;;;;;;;;;27.00;19.67;;;;;15.81;68.06;102110.94;4931092;28;45448;-83
2021/10/27 11:47:59;;;;;;;;;18.67;18.33;;;;;15.93;67.59;102121.75;4937149;28;45478;-83
2021/10/27 11:50:31;;;;;;;;;22.00;21.00;;;;;16.02;68.54;102118.25;4941058;28;45357;-80
2021/10/27 11:52:56;;;;;;;;;17.33;15.67;;;;;16.08;68.26;102111.22;4938604;28;45470;-80
2021/10/27 11:55:22;;;;;;;;;14.33;11.33;;;;;16.01;66.70;102104.06;4954719;28;56541;-80
2021/10/27 11:57:51;;;;;;;;;17.67;15.00;;;;;15.98;67.27;102093.38;4955770;28;45383;-78
2021/10/27 12:00:32;;;;;;;;;19.00;19.00;;;;;16.11;67.08;102105.91;4953666;28;45707;-77
2021/10/27 12:03:08;;;;;;;;;19.67;16.33;;;;;16.14;67.60;102100.63;4959319;28;45513;-75
2021/10/27 12:05:45;;;;;;;;;24.00;19.67;;;;;16.22;67.59;102114.00;4961836;28;47816;-75
2021/10/27 12:08:41;;;;;;;;;19.67;19.00;;;;;16.25;67.07;102098.06;4965634;28;45474;-76
2021/10/27 12:24:32;;;;;;;;;15.33;15.33;;;;;16.38;66.64;102064.38;5000374;22;45506;-75
2021/10/27 12:27:05;;;;;;;;;18.00;13.67;;;;;16.46;66.59;102068.00;5069711;28;46780;-75
2021/10/27 12:29:32;;;;;;;;;18.00;14.67;;;;;16.49;66.80;102063.56;5059673;28;46462;-76
2021/10/27 12:32:10;;;;;;;;;15.67;15.33;;;;;16.57;66.42;102068.94;5069472;27;45500;-76
2021/10/27 12:34:49;;;;;;;;;15.33;13.00;;;;;16.60;65.55;102058.28;5066617;28;45476;-76
2021/10/27 12:40:34;;;;;;;;;11.33;11.00;;;;;16.69;65.97;102047.66;5061225;28;45564;-77
2021/10/27 12:42:59;;;;;;;;;10.33;10.00;;;;;16.73;65.41;102045.97;5056036;28;45624;-76
2021/10/27 12:45:37;;;;;;;;;16.33;11.33;;;;;16.78;65.83;102036.22;5075917;28;45553;-76
2021/10/27 12:48:18;;;;;;;;;11.00;11.00;;;;;16.80;65.54;102036.19;5055712;28;45674;-76
2021/10/27 12:53:50;;;;;;;;;12.00;12.00;;;;;16.89;63.96;102034.47;5012451;28;45482;-76
2021/10/27 12:56:17;;;;;;;;;12.67;11.33;;;;;16.92;64.95;102023.78;5004835;28;45488;-76
2021/10/27 12:58:46;;;;;;;;;13.67;12.00;;;;;16.94;64.75;102029.16;5077294;28;45458;-77
2021/10/27 13:01:33;;;;;;;;;10.67;9.33;;;;;16.99;65.09;102024.69;5007488;28;45513;-77
2021/10/27 13:04:12;;;;;;;;;12.33;11.00;;;;;17.01;63.69;102022.94;5042032;28;45533;-76
2021/10/27 13:06:44;;;;;;;;;12.00;11.00;;;;;17.05;64.48;102022.09;5074056;28;45731;-76
2021/10/27 13:17:05;;;;;;;;;12.67;11.33;;;;;17.17;64.50;102003.44;5076954;28;45254;-77
2021/10/27 13:30:08;;;;;;;;;13.33;10.00;;;;;17.28;64.09;101982.09;5066348;28;45529;-79
2021/10/27 13:32:37;;;;;;;;;11.33;10.00;;;;;17.25;64.00;101980.28;5069467;28;46527;-76
2021/10/27 13:35:04;;;;;;;;;15.00;12.00;;;;;17.26;64.07;101973.22;5065315;28;45688;-76
2021/10/27 13:37:30;;;;;;;;;15.00;14.00;;;;;17.33;63.72;101987.44;5073326;28;45439;-79
2021/10/27 13:39:55;;;;;;;;;12.67;12.00;;;;;17.33;64.11;101984.78;5071706;28;45392;-76
2021/10/27 13:42:26;;;;;;;;;11.33;11.33;;;;;17.34;63.16;101981.22;5071066;28;45482;-76
2021/10/27 14:11:17;;;;;;;;;15.00;13.67;;;;;17.27;63.89;101946.50;5063984;28;45508;-78
2021/10/27 14:40:30;;;;;;;;;10.33;8.00;;;;;17.35;63.87;101927.81;4945837;28;45434;-78
2021/10/27 15:20:52;;;;;;;;;9.67;7.67;;;;;17.25;64.55;101900.22;4937097;28;45399;-78
2021/10/27 15:27:33;;;;;;;;;7.33;6.33;;;;;17.21;64.87;101902.91;4961038;28;45603;-77
2021/10/27 15:28:50;;;;;;;;;9.00;7.67;;;;;17.14;65.02;101885.97;4947588;28;46056;-77
2021/10/27 15:36:44;;;;;;;;;9.00;7.00;;;;;17.04;65.70;101881.50;4954587;28;45459;-78
2021/10/27 15:42:47;;;;;;;;;6.33;6.33;;;;;16.98;65.39;101879.72;4960605;28;45454;-77
2021/10/27 15:44:59;;;;;;;;;7.67;6.67;;;;;16.91;65.29;101883.28;4965332;28;45364;-77
2021/10/27 15:52:56;;;;;;;;;10.00;7.33;;;;;16.81;65.93;101877.94;4969207;28;45378;-78
2021/10/27 15:55:21;;;;;;;;;8.00;6.00;;;;;16.81;65.52;101880.59;4961587;28;45483;-79
2021/10/27 15:57:47;;;;;;;;;10.33;8.00;;;;;16.75;65.69;101885.03;4972937;28;45391;-77
2021/10/27 16:00:12;;;;;;;;;6.00;6.00;;;;;16.73;65.65;101883.25;4963858;28;45758;-78
2021/10/27 16:02:38;;;;;;;;;6.33;6.33;;;;;16.69;65.73;101882.31;4964733;28;45468;-79
2021/10/27 16:05:05;;;;;;;;;7.00;6.00;;;;;16.63;65.91;101879.66;5004320;22;55120;-77
2021/10/27 16:07:33;;;;;;;;;6.00;6.00;;;;;16.55;66.04;101873.38;4964992;28;45701;-76
2021/10/27 16:10:03;;;;;;;;;6.00;6.00;;;;;16.55;65.89;101877.81;4968690;28;47260;-77
2021/10/27 16:12:29;;;;;;;;;5.00;5.00;;;;;16.48;66.30;101868.94;4972651;28;45489;-76
2021/10/27 16:14:57;;;;;;;;;8.33;6.67;;;;;16.41;66.29;101870.69;4962015;28;45664;-77
2021/10/27 16:17:22;;;;;;;;;9.67;6.00;;;;;16.38;66.50;101872.44;4964650;28;45406;-77
2021/10/27 16:23:10;;;;;;;;;9.00;5.00;;;;;16.21;66.55;101872.38;4962201;28;45479;-77
2021/10/27 16:25:36;;;;;;;;;6.00;5.33;;;;;16.17;66.79;101879.47;4982217;22;45508;-75
2021/10/27 16:28:01;;;;;;;;;9.00;6.00;;;;;16.08;66.96;101865.19;4971118;28;45833;-77